Time;durP1;ratioP1;P1;durP2;ratioP2;P2;SDS_P1;SDS_P2;PMS_P1;PMS_P2;Temp;Humidity;BMP_temperature;BMP_pressure;BME280_temperature;BME280_humidity;BME280_pressure;Samples;Min_cycle;Max_cycle;Signal;HPM_P1;HPM_P2
2021/10/10 00:00:25;;;;;;;58.70;2.90;;;5.70;1.00;;;;;;5133719;27;20645;-73
2021/10/10 00:02:52;;;;;;;58.65;2.90;;;5.70;1.00;;;;;;5133767;27;20293;-73
2021/10/10 00:05:19;;;;;;;58.85;3.10;;;5.70;1.00;;;;;;5133595;27;20298;-73
2021/10/10 00:07:46;;;;;;;58.70;2.80;;;5.60;1.00;;;;;;5133214;27;20641;-73
2021/10/10 00:10:14;;;;;;;58.78;2.78;;;5.60;1.00;;;;;;5133251;27;20219;-73
2021/10/10 00:12:42;;;;;;;58.70;3.28;;;5.60;1.00;;;;;;5133676;27;20203;-73
2021/10/10 00:15:12;;;;;;;58.78;3.30;;;5.60;1.00;;;;;;5133304;27;20293;-72
2021/10/10 00:17:40;;;;;;;58.67;2.60;;;5.50;1.00;;;;;;5132982;27;20290;-73
2021/10/10 00:20:08;;;;;;;58.67;2.92;;;5.50;1.00;;;;;;5133266;27;20202;-72
2021/10/10 00:22:35;;;;;;;58.88;2.85;;;5.50;1.00;;;;;;5133051;27;20202;-72
2021/10/10 00:25:02;;;;;;;58.47;2.72;;;5.50;1.00;;;;;;5133073;27;20226;-73
2021/10/10 00:27:29;;;;;;;58.85;2.95;;;5.40;1.00;;;;;;5132726;27;20198;-72
2021/10/10 00:29:56;;;;;;;58.85;3.20;;;5.40;1.00;;;;;;5133301;27;20573;-72
2021/10/10 00:32:23;;;;;;;59.20;3.80;;;5.40;1.00;;;;;;5133119;27;20234;-72
2021/10/10 00:34:51;;;;;;;58.75;2.95;;;5.30;1.00;;;;;;5132879;27;20249;-72
2021/10/10 00:37:18;;;;;;;58.75;2.90;;;5.30;1.00;;;;;;5132651;27;20206;-72
2021/10/10 00:39:44;;;;;;;58.78;3.05;;;5.30;1.00;;;;;;5133171;27;20310;-72
2021/10/10 00:42:11;;;;;;;59.17;3.92;;;5.20;1.00;;;;;;5132825;27;20708;-72
2021/10/10 00:44:38;;;;;;;58.58;3.03;;;5.20;1.00;;;;;;5132867;27;20202;-72
2021/10/10 00:47:05;;;;;;;58.58;2.92;;;5.10;1.00;;;;;;5132593;27;20202;-72
2021/10/10 00:49:32;;;;;;;58.78;3.30;;;5.20;1.00;;;;;;5132647;27;20227;-73
2021/10/10 00:52:01;;;;;;;58.67;2.95;;;5.10;1.00;;;;;;5132622;27;20211;-73
2021/10/10 00:54:31;;;;;;;58.55;2.90;;;5.10;1.00;;;;;;5132889;28;20211;-72
2021/10/10 01:00:21;;;;;;;58.67;2.90;;;5.10;1.00;;;;;;5131312;28;20257;-72
2021/10/10 01:02:50;;;;;;;58.88;3.30;;;5.10;1.00;;;;;;5132836;28;20571;-72
2021/10/10 01:05:17;;;;;;;58.90;3.38;;;5.10;1.00;;;;;;5132665;28;20203;-73
2021/10/10 01:07:45;;;;;;;58.75;3.05;;;5.10;1.00;;;;;;5132273;28;20203;-73
2021/10/10 01:10:13;;;;;;;58.78;3.03;;;5.10;1.00;;;;;;5132378;28;20227;-72
2021/10/10 01:12:41;;;;;;;58.80;3.00;;;5.00;1.00;;;;;;5132560;28;20671;-73
2021/10/10 01:15:10;;;;;;;58.67;2.85;;;5.00;1.00;;;;;;5132653;28;20213;-72
2021/10/10 01:17:37;;;;;;;58.67;3.00;;;5.00;1.00;;;;;;5132492;28;20559;-73
2021/10/10 01:20:06;;;;;;;60.65;3.55;;;5.00;1.00;;;;;;5132570;28;20209;-73
2021/10/10 01:22:34;;;;;;;58.88;3.60;;;5.00;1.00;;;;;;5132269;27;20285;-73
2021/10/10 01:25:01;;;;;;;59.50;4.50;;;5.00;1.00;;;;;;5136437;27;20211;-71
2021/10/10 01:27:28;;;;;;;59.28;4.25;;;4.90;1.00;;;;;;5136516;27;20301;-73
2021/10/10 01:29:55;;;;;;;58.75;2.92;;;4.90;1.00;;;;;;5136409;27;20219;-72
2021/10/10 01:32:22;;;;;;;58.67;3.00;;;4.90;1.00;;;;;;5136388;27;20613;-72
2021/10/10 01:34:49;;;;;;;58.58;2.72;;;4.90;1.00;;;;;;5136405;27;20298;-72
2021/10/10 01:37:18;;;;;;;58.50;2.78;;;4.90;1.00;;;;;;5136402;27;20293;-73
2021/10/10 01:39:46;;;;;;;58.78;3.80;;;4.80;1.00;;;;;;5136333;27;20652;-72
2021/10/10 01:42:13;;;;;;;58.60;3.28;;;4.80;1.00;;;;;;5136579;27;20290;-72
2021/10/10 01:44:40;;;;;;;58.90;3.65;;;4.80;1.00;;;;;;5136226;27;20242;-73
2021/10/10 01:47:06;;;;;;;58.88;3.10;;;4.70;1.00;;;;;;5133871;27;20289;-73
2021/10/10 01:49:37;;;;;;;58.67;3.10;;;4.70;1.00;;;;;;5136031;27;20233;-72
2021/10/10 01:52:04;;;;;;;58.50;3.10;;;4.70;1.00;;;;;;5136287;27;20214;-73
2021/10/10 01:54:31;;;;;;;58.75;3.00;;;4.70;1.00;;;;;;5136200;27;20372;-72
2021/10/10 01:57:00;;;;;;;58.65;2.90;;;4.60;1.00;;;;;;5135735;27;20689;-72
2021/10/10 01:59:27;;;;;;;58.78;3.00;;;4.60;1.00;;;;;;5136005;27;20219;-73
2021/10/10 02:01:54;;;;;;;59.35;3.50;;;4.60;1.00;;;;;;5136074;27;20230;-73
2021/10/10 02:04:21;;;;;;;58.67;2.90;;;4.60;1.00;;;;;;5135962;27;20207;-73
2021/10/10 02:06:47;;;;;;;58.47;3.00;;;4.50;1.00;;;;;;5135438;27;20242;-72
2021/10/10 02:09:14;;;;;;;58.85;3.10;;;4.50;1.00;;;;;;5135702;27;20230;-73
2021/10/10 02:11:41;;;;;;;58.75;3.50;;;4.50;1.00;;;;;;5135764;27;20289;-73
2021/10/10 02:14:09;;;;;;;58.65;2.80;;;4.40;1.00;;;;;;5135798;27;20230;-73
2021/10/10 02:16:36;;;;;;;58.58;3.05;;;4.40;1.00;;;;;;5135502;27;20205;-72
2021/10/10 02:19:03;;;;;;;58.70;3.03;;;4.40;1.00;;;;;;5135532;27;20317;-73
2021/10/10 02:21:30;;;;;;;58.35;3.03;;;4.30;1.00;;;;;;5135447;27;20206;-73
2021/10/10 02:23:57;;;;;;;58.17;3.20;;;4.30;1.00;;;;;;5135631;27;20306;-73
2021/10/10 02:26:24;;;;;;;58.58;2.90;;;4.30;1.00;;;;;;5135512;27;20245;-73
2021/10/10 02:28:50;;;;;;;58.70;2.90;;;4.30;1.00;;;;;;5135641;27;20314;-73
2021/10/10 02:31:19;;;;;;;59.35;4.30;;;4.20;1.00;;;;;;5135304;27;20254;-73
2021/10/10 02:33:46;;;;;;;58.47;3.10;;;4.20;1.00;;;;;;5135174;27;20679;-73
2021/10/10 02:36:12;;;;;;;59.05;3.50;;;4.20;1.00;;;;;;5133829;27;20198;-73
2021/10/10 02:38:39;;;;;;;61.13;4.07;;;4.20;1.00;;;;;;5135303;27;20254;-73
2021/10/10 02:41:06;;;;;;;58.58;2.88;;;4.20;1.00;;;;;;5135257;27;20282;-73
2021/10/10 02:43:33;;;;;;;58.55;3.30;;;4.10;1.00;;;;;;5135730;27;20290;-72
2021/10/10 02:46:00;;;;;;;58.58;3.20;;;4.10;1.00;;;;;;5134816;27;20629;-73
2021/10/10 02:48:28;;;;;;;58.90;3.60;;;4.10;1.00;;;;;;5134966;27;20313;-73
2021/10/10 02:50:55;;;;;;;59.30;3.45;;;4.10;1.00;;;;;;5134950;27;20223;-73
2021/10/10 02:53:22;;;;;;;58.58;2.90;;;4.10;1.00;;;;;;5135326;27;20322;-73
2021/10/10 02:55:49;;;;;;;58.67;3.22;;;4.00;1.00;;;;;;5134599;27;20237;-73
2021/10/10 02:58:15;;;;;;;58.17;3.25;;;4.00;1.00;;;;;;5134883;27;20225;-73
2021/10/10 03:00:44;;;;;;;58.15;2.80;;;4.00;1.00;;;;;;5134872;27;20202;-73
2021/10/10 03:03:11;;;;;;;58.13;3.20;;;4.00;1.00;;;;;;5134995;27;20206;-73
2021/10/10 03:05:39;;;;;;;58.08;3.10;;;4.00;1.00;;;;;;5134657;27;20631;-73
2021/10/10 03:08:06;;;;;;;57.92;3.10;;;4.00;1.00;;;;;;5134934;27;20262;-73
2021/10/10 03:10:33;;;;;;;58.35;3.15;;;3.90;1.00;;;;;;5134951;27;20305;-73
2021/10/10 03:12:59;;;;;;;58.80;3.20;;;3.90;1.00;;;;;;5134700;27;20750;-73
2021/10/10 03:15:26;;;;;;;58.78;3.00;;;3.90;1.00;;;;;;5134229;27;20234;-73
2021/10/10 03:17:53;;;;;;;58.90;3.15;;;3.90;1.00;;;;;;5134513;27;20225;-73
2021/10/10 03:20:20;;;;;;;58.85;3.03;;;3.90;1.00;;;;;;5134915;27;20234;-73
2021/10/10 03:22:48;;;;;;;58.78;3.47;;;3.90;1.00;;;;;;5134237;27;20822;-72
2021/10/10 03:25:15;;;;;;;58.67;3.00;;;3.90;1.00;;;;;;5134162;27;20639;-73
2021/10/10 03:27:42;;;;;;;58.67;3.45;;;3.90;1.00;;;;;;5134191;27;20294;-72
2021/10/10 03:30:10;;;;;;;61.33;4.05;;;3.90;1.00;;;;;;5134114;27;20313;-73
2021/10/10 03:32:37;;;;;;;58.45;3.00;;;3.90;1.00;;;;;;5134083;27;20625;-73
2021/10/10 03:35:05;;;;;;;58.67;2.70;;;3.80;1.00;;;;;;5134213;27;20298;-73
2021/10/10 03:37:32;;;;;;;58.75;2.83;;;3.80;1.00;;;;;;5134125;27;20210;-73
2021/10/10 03:40:01;;;;;;;58.58;3.35;;;3.80;1.00;;;;;;5133903;27;20215;-73
2021/10/10 03:42:28;;;;;;;58.58;2.90;;;3.80;1.00;;;;;;5134028;27;20295;-73
2021/10/10 03:44:54;;;;;;;58.90;2.78;;;3.70;1.00;;;;;;5133942;27;20209;-73
2021/10/10 03:47:21;;;;;;;58.88;2.78;;;3.70;1.00;;;;;;5133554;27;20522;-73
2021/10/10 03:49:48;;;;;;;58.80;2.90;;;3.70;1.00;;;;;;5133839;27;20670;-73
2021/10/10 03:52:15;;;;;;;58.88;3.03;;;3.60;1.00;;;;;;5133871;27;20205;-73
2021/10/10 03:57:28;;;;;;;59.65;3.60;;;3.50;1.00;;;;;;5133486;27;20206;-73
2021/10/10 03:59:56;;;;;;;57.90;3.17;;;3.50;1.00;;;;;;5133827;27;20245;-73
2021/10/10 04:02:23;;;;;;;58.35;2.90;;;3.50;1.00;;;;;;5133990;27;20296;-73
2021/10/10 04:04:51;;;;;;;58.28;2.90;;;3.40;1.00;;;;;;5133535;27;20307;-73
2021/10/10 04:07:18;;;;;;;59.72;3.72;;;3.40;1.00;;;;;;5133222;27;20630;-73
2021/10/10 04:09:45;;;;;;;58.38;3.20;;;3.40;1.00;;;;;;5133285;27;20305;-73
2021/10/10 04:12:12;;;;;;;58.90;3.30;;;3.30;1.00;;;;;;5133672;27;20241;-72
2021/10/10 04:14:40;;;;;;;58.80;3.20;;;3.30;1.00;;;;;;5133370;27;20213;-73
2021/10/10 04:17:07;;;;;;;58.70;3.05;;;3.30;1.00;;;;;;5133220;27;20586;-72
2021/10/10 04:19:34;;;;;;;58.65;3.20;;;3.30;1.00;;;;;;5133424;27;20834;-72
2021/10/10 04:22:01;;;;;;;58.97;3.40;;;3.20;1.00;;;;;;5133181;27;20203;-72
2021/10/10 04:24:28;;;;;;;58.38;3.00;;;3.20;1.00;;;;;;5133002;27;20242;-72
2021/10/10 04:26:55;;;;;;;58.67;3.20;;;3.20;1.00;;;;;;5133019;27;20199;-73
2021/10/10 04:29:22;;;;;;;58.47;3.10;;;3.20;1.00;;;;;;5133440;27;20237;-72
2021/10/10 04:31:50;;;;;;;58.63;3.45;;;3.20;1.00;;;;;;5132932;27;20313;-73
2021/10/10 04:34:17;;;;;;;58.40;3.25;;;3.20;1.00;;;;;;5133193;27;20576;-73
2021/10/10 04:36:44;;;;;;;58.70;3.10;;;3.20;1.00;;;;;;5133189;27;20241;-73
2021/10/10 04:39:11;;;;;;;58.47;3.05;;;3.10;1.00;;;;;;5133036;27;20270;-73
2021/10/10 04:41:37;;;;;;;58.17;3.00;;;3.20;1.00;;;;;;5133005;27;20282;-73
2021/10/10 04:44:05;;;;;;;58.47;3.00;;;3.10;1.00;;;;;;5133172;27;20618;-72
2021/10/10 04:46:32;;;;;;;58.67;3.00;;;3.10;1.00;;;;;;5132927;27;20230;-72
2021/10/10 04:49:00;;;;;;;58.58;3.13;;;3.10;1.00;;;;;;5132800;27;20314;-72
2021/10/10 04:51:27;;;;;;;58.55;3.13;;;3.10;1.00;;;;;;5132855;27;20306;-72
2021/10/10 04:53:54;;;;;;;58.22;3.63;;;3.10;1.00;;;;;;5133185;27;20632;-72
2021/10/10 04:56:20;;;;;;;58.85;3.35;;;3.10;1.00;;;;;;5132582;28;20213;-72
2021/10/10 04:58:47;;;;;;;58.15;3.88;;;3.00;1.00;;;;;;5132177;27;20496;-71
2021/10/10 05:01:14;;;;;;;58.63;3.50;;;3.00;1.00;;;;;;5132981;28;20246;-72
2021/10/10 05:03:41;;;;;;;58.45;3.10;;;3.00;1.00;;;;;;5132807;28;20229;-72
2021/10/10 05:06:10;;;;;;;58.25;2.90;;;3.00;1.00;;;;;;5132290;28;20203;-73
2021/10/10 05:08:36;;;;;;;58.47;3.10;;;3.00;1.00;;;;;;5132808;28;20225;-72
2021/10/10 05:11:04;;;;;;;58.58;3.20;;;3.00;1.00;;;;;;5132781;28;20314;-72
2021/10/10 05:13:31;;;;;;;58.85;3.30;;;3.00;1.00;;;;;;5132730;28;20302;-72
2021/10/10 05:15:58;;;;;;;76.55;5.32;;;2.90;1.00;;;;;;5132141;28;20210;-71
2021/10/10 05:18:24;;;;;;;58.67;2.97;;;2.90;1.00;;;;;;5133148;28;20219;-72
2021/10/10 05:20:51;;;;;;;58.80;3.38;;;2.90;1.00;;;;;;5132501;28;20705;-72
2021/10/10 05:23:20;;;;;;;59.60;3.47;;;2.90;1.00;;;;;;5132445;28;20234;-72
2021/10/10 05:25:46;;;;;;;58.78;3.30;;;2.90;1.00;;;;;;5132138;28;20213;-72
2021/10/10 05:28:13;;;;;;;58.80;3.10;;;2.90;1.00;;;;;;5132633;28;20596;-72
2021/10/10 05:30:40;;;;;;;58.17;3.60;;;2.80;1.00;;;;;;5132261;28;20268;-72
2021/10/10 05:33:07;;;;;;;58.90;2.92;;;2.80;1.00;;;;;;5132315;28;20206;-72
2021/10/10 05:35:34;;;;;;;58.47;3.30;;;2.80;1.00;;;;;;5132676;28;20207;-71
2021/10/10 05:38:01;;;;;;;58.15;3.00;;;2.80;1.00;;;;;;5132679;28;20219;-72
2021/10/10 05:40:29;;;;;;;58.72;3.63;;;2.80;1.00;;;;;;5132551;28;20238;-72
2021/10/10 05:42:56;;;;;;;58.40;2.95;;;2.80;1.00;;;;;;5132428;28;20667;-71
2021/10/10 05:45:23;;;;;;;58.58;3.10;;;2.80;1.00;;;;;;5132160;28;20253;-72
2021/10/10 05:47:50;;;;;;;59.00;3.30;;;2.80;1.00;;;;;;5131979;28;20245;-72
2021/10/10 05:50:17;;;;;;;59.20;3.40;;;2.80;1.00;;;;;;5132285;28;20285;-72
2021/10/10 05:52:44;;;;;;;58.30;3.60;;;2.80;1.00;;;;;;5132521;28;20231;-71
2021/10/10 05:55:14;;;;;;;58.78;3.58;;;2.80;1.00;;;;;;5132745;28;20213;-71
2021/10/10 05:57:46;;;;;;;58.55;3.20;;;2.80;1.00;;;;;;5131935;28;20252;-72
2021/10/10 06:00:15;;;;;;;57.70;2.90;;;2.80;1.00;;;;;;5132848;28;20207;-71
2021/10/10 06:02:42;;;;;;;58.22;3.17;;;2.90;1.00;;;;;;5132484;28;20628;-72
2021/10/10 06:05:10;;;;;;;58.30;3.35;;;2.90;1.00;;;;;;5131900;28;20675;-72
2021/10/10 06:07:37;;;;;;;58.83;3.28;;;2.90;1.00;;;;;;5131958;28;20203;-72
2021/10/10 06:10:05;;;;;;;58.78;3.00;;;2.90;1.00;;;;;;5134923;27;20259;-72
2021/10/10 06:12:32;;;;;;;58.78;3.10;;;2.90;1.00;;;;;;5135688;27;20718;-73
2021/10/10 06:15:01;;;;;;;58.47;3.20;;;3.00;1.00;;;;;;5135570;27;20230;-72
2021/10/10 06:17:29;;;;;;;58.58;2.92;;;3.00;1.00;;;;;;5135680;27;20230;-72
2021/10/10 06:19:56;;;;;;;58.78;3.70;;;3.10;1.00;;;;;;5135571;27;20230;-73
2021/10/10 06:22:23;;;;;;;58.90;2.97;;;3.10;1.00;;;;;;5135653;27;20234;-72
2021/10/10 06:24:50;;;;;;;58.47;2.97;;;3.20;1.00;;;;;;5135230;27;20215;-72
2021/10/10 06:27:18;;;;;;;58.90;3.30;;;3.20;1.00;;;;;;5135198;27;20293;-72
2021/10/10 06:29:45;;;;;;;58.40;3.88;;;3.20;1.00;;;;;;5135409;27;20745;-73
2021/10/10 06:32:13;;;;;;;58.63;3.33;;;3.20;1.00;;;;;;5135503;27;20340;-72
2021/10/10 06:34:40;;;;;;;58.10;3.15;;;3.30;1.00;;;;;;5135474;27;20230;-72
2021/10/10 06:37:07;;;;;;;58.83;3.20;;;3.30;1.00;;;;;;5135211;27;20616;-72
2021/10/10 06:39:35;;;;;;;58.47;3.00;;;3.30;1.00;;;;;;5135199;27;20309;-72
2021/10/10 06:42:02;;;;;;;58.75;3.40;;;3.30;1.00;;;;;;5135135;27;20213;-72
2021/10/10 06:44:30;;;;;;;58.17;3.25;;;3.30;1.00;;;;;;5135452;27;20226;-72
2021/10/10 06:46:56;;;;;;;58.63;3.60;;;3.40;1.00;;;;;;5134936;27;20300;-73
2021/10/10 06:49:25;;;;;;;58.35;3.13;;;3.40;1.00;;;;;;5134919;27;20748;-72
2021/10/10 06:51:52;;;;;;;58.80;3.10;;;3.50;1.00;;;;;;5134956;27;20660;-72
2021/10/10 06:54:19;;;;;;;58.80;2.90;;;3.50;1.00;;;;;;5134965;27;20696;-72
2021/10/10 06:56:46;;;;;;;58.67;3.55;;;3.60;1.00;;;;;;5134515;27;20579;-72
2021/10/10 06:59:13;;;;;;;58.55;3.10;;;3.60;1.00;;;;;;5134847;27;20223;-72
2021/10/10 07:01:40;;;;;;;58.65;2.80;;;3.70;1.00;;;;;;5135290;27;20214;-70
2021/10/10 07:04:07;;;;;;;58.47;2.85;;;3.70;1.00;;;;;;5134922;27;20209;-71
2021/10/10 07:06:35;;;;;;;59.90;4.05;;;3.90;1.00;;;;;;5134539;27;20582;-71
2021/10/10 07:09:02;;;;;;;58.58;2.90;;;3.90;1.00;;;;;;5134597;27;20695;-71
2021/10/10 07:11:29;;;;;;;58.75;2.95;;;4.10;1.00;;;;;;5135143;27;20219;-72
2021/10/10 07:13:56;;;;;;;58.60;2.97;;;4.10;1.00;;;;;;5134584;27;20691;-71
2021/10/10 07:16:26;;;;;;;58.58;3.63;;;4.20;1.00;;;;;;5134398;27;20234;-71
2021/10/10 07:18:55;;;;;;;58.20;3.20;;;4.30;1.00;;;;;;5134485;27;20222;-72
2021/10/10 07:21:27;;;;;;;58.65;2.60;;;4.40;1.00;;;;;;5133668;27;20293;-72
2021/10/10 07:24:51;;;;;;;58.90;3.00;;;4.50;1.00;;;;;;5134130;27;20218;-71
2021/10/10 07:26:44;;;;;;;58.70;2.85;;;4.60;1.00;;;;;;5134144;27;20667;-71
2021/10/10 07:29:11;;;;;;;58.42;2.72;;;4.60;1.00;;;;;;5134112;27;20231;-71
2021/10/10 07:31:38;;;;;;;58.60;3.08;;;4.70;1.00;;;;;;5134104;27;20596;-72
2021/10/10 07:34:04;;;;;;;58.42;2.85;;;4.80;1.00;;;;;;5134206;27;20294;-71
2021/10/10 07:36:32;;;;;;;58.28;2.55;;;4.90;1.00;;;;;;5133972;27;20231;-72
2021/10/10 07:39:00;;;;;;;58.53;2.97;;;5.00;1.00;;;;;;5134201;27;20265;-70
2021/10/10 07:41:27;;;;;;;58.58;2.72;;;5.00;1.00;;;;;;5134130;27;20254;-72
2021/10/10 07:43:54;;;;;;;58.90;3.03;;;5.10;1.00;;;;;;5133976;27;20207;-73
2021/10/10 07:46:32;;;;;;;58.58;3.47;;;5.20;1.00;;;;;;5133586;27;20654;-72
2021/10/10 07:48:59;;;;;;;58.67;3.17;;;5.40;1.00;;;;;;5133978;27;20223;-73
2021/10/10 07:51:28;;;;;;;58.70;3.30;;;5.50;1.00;;;;;;5133935;27;20589;-72
2021/10/10 07:53:55;;;;;;;58.50;2.70;;;5.60;1.00;;;;;;5133953;27;20203;-71
2021/10/10 07:56:24;;;;;;;58.35;3.00;;;5.60;1.00;;;;;;5133416;27;20206;-71
2021/10/10 07:58:50;;;;;;;61.90;3.47;;;5.70;1.00;;;;;;5133737;27;20319;-72
2021/10/10 08:01:18;;;;;;;58.55;2.80;;;5.80;1.00;;;;;;5133664;27;20622;-72
2021/10/10 08:03:44;;;;;;;59.55;3.67;;;5.90;1.00;;;;;;5132566;27;20204;-73
2021/10/10 08:06:12;;;;;;;58.78;3.00;;;6.00;1.00;;;;;;5133467;27;20249;-73
2021/10/10 08:08:39;;;;;;;58.55;2.90;;;6.10;1.00;;;;;;5133585;27;20310;-72
2021/10/10 08:11:06;;;;;;;58.67;3.15;;;6.20;1.00;;;;;;5133360;27;20209;-72
2021/10/10 08:13:34;;;;;;;58.72;3.45;;;6.40;1.00;;;;;;5133347;27;20294;-73
2021/10/10 08:16:01;;;;;;;58.90;3.20;;;6.50;1.00;;;;;;5133204;27;20202;-73
2021/10/10 08:18:28;;;;;;;60.00;3.78;;;6.60;1.00;;;;;;5133290;27;20263;-72
2021/10/10 08:20:55;;;;;;;58.47;2.90;;;6.70;1.00;;;;;;5133598;27;20200;-72
2021/10/10 08:23:22;;;;;;;58.97;3.38;;;6.80;1.00;;;;;;5133285;27;20208;-73
2021/10/10 08:25:49;;;;;;;59.00;3.30;;;7.00;1.00;;;;;;5132604;27;20601;-73
2021/10/10 08:28:16;;;;;;;58.67;3.13;;;7.10;1.00;;;;;;5132893;27;20660;-73
2021/10/10 08:30:44;;;;;;;58.60;2.80;;;7.20;1.00;;;;;;5133031;27;20313;-73
2021/10/10 08:33:11;;;;;;;59.00;3.50;;;7.40;1.00;;;;;;5131574;27;20264;-73
2021/10/10 08:35:38;;;;;;;59.40;3.63;;;7.50;1.00;;;;;;5132734;27;20235;-73
2021/10/10 08:38:05;;;;;;;58.63;2.90;;;7.60;1.00;;;;;;5133122;27;20546;-72
2021/10/10 08:40:32;;;;;;;58.57;2.90;;;7.80;1.00;;;;;;5132909;27;20748;-73
2021/10/10 08:43:01;;;;;;;60.90;4.60;;;7.90;1.00;;;;;;5132999;27;20484;-73
2021/10/10 08:45:30;;;;;;;59.10;3.93;;;8.00;1.00;;;;;;5131903;27;20835;-73
2021/10/10 08:47:58;;;;;;;58.47;2.90;;;8.20;1.00;;;;;;5131653;27;20450;-72
2021/10/10 08:50:27;;;;;;;58.57;2.90;;;8.30;1.00;;;;;;5131775;27;20887;-72
2021/10/10 08:52:57;;;;;;;58.47;2.70;;;8.50;1.00;;;;;;5132401;27;20490;-73
2021/10/10 08:55:25;;;;;;;60.43;3.60;;;8.60;1.00;;;;;;5129843;27;20961;-73
2021/10/10 08:57:53;;;;;;;58.27;2.70;;;8.80;1.00;;;;;;5131996;27;20450;-72
2021/10/10 09:00:22;;;;;;;58.87;3.43;;;9.00;1.00;;;;;;5132268;28;20454;-74
2021/10/10 09:02:51;;;;;;;58.33;2.93;;;9.10;1.00;;;;;;5131648;28;20459;-70
2021/10/10 09:05:19;;;;;;;58.43;3.17;;;9.30;1.00;;;;;;5132304;28;20449;-71
2021/10/10 09:07:48;;;;;;;58.37;3.10;;;9.40;1.00;;;;;;5131836;28;20458;-72
2021/10/10 09:10:21;;;;;;;58.50;2.77;;;9.50;1.00;;;;;;5132211;28;20454;-72
2021/10/10 09:12:48;;;;;;;58.90;3.43;;;9.60;1.00;;;;;;5131705;28;20495;-71
2021/10/10 09:15:17;;;;;;;58.17;2.70;;;9.80;1.00;;;;;;5131563;28;20940;-72
2021/10/10 09:17:53;;;;;;;58.13;2.80;;;9.90;1.00;;;;;;5131866;28;20530;-70
2021/10/10 09:20:28;;;;;;;58.23;2.73;;;10.10;1.00;;;;;;5131797;28;20850;-72
2021/10/10 09:22:56;;;;;;;58.60;3.47;;;10.30;1.00;;;;;;5132242;28;20445;-70
2021/10/10 09:25:22;;;;;;;59.00;3.90;;;10.50;1.00;;;;;;5131530;28;20459;-72
2021/10/10 09:27:49;;;;;;;58.23;2.60;;;10.70;1.00;;;;;;5131622;28;20541;-70
2021/10/10 09:30:20;;;;;;;57.97;2.87;;;10.90;1.00;;;;;;5131882;28;20444;-70
2021/10/10 09:32:47;;;;;;;58.07;2.80;;;11.20;1.00;;;;;;5131682;28;20484;-71
2021/10/10 09:35:27;;;;;;;58.23;2.80;;;11.40;1.00;;;;;;5131568;28;20544;-71
2021/10/10 09:38:13;;;;;;;58.60;3.20;;;11.70;1.00;;;;;;5132640;28;20861;-72
2021/10/10 09:40:46;;;;;;;58.60;3.00;;;12.10;1.00;;;;;;5130279;28;20491;-71
2021/10/10 09:43:13;;;;;;;58.60;3.00;;;13.10;1.00;;;;;;5130980;27;20465;-71
2021/10/10 09:45:52;;;;;;;58.47;3.10;;;14.30;1.00;;;;;;5134913;27;20477;-71
2021/10/10 09:48:29;;;;;;;59.10;3.87;;;15.50;1.00;;;;;;5135467;27;20480;-72
2021/10/10 09:50:56;;;;;;;59.20;3.80;;;16.60;1.00;;;;;;5135645;27;20444;-72
2021/10/10 09:53:32;;;;;;;58.00;2.70;;;17.50;1.00;;;;;;5135460;27;20569;-72
2021/10/10 09:56:03;;;;;;;57.90;2.77;;;18.30;1.00;;;;;;5134526;27;20488;-72
2021/10/10 09:58:38;;;;;;;58.50;3.03;;;18.90;1.00;;;;;;5135334;27;20525;-72
2021/10/10 10:01:13;;;;;;;58.80;3.53;;;19.40;1.00;;;;;;5135872;27;20445;-72
2021/10/10 10:03:56;;;;;;;59.77;4.93;;;19.80;1.00;;;;;;5138222;27;20454;-73
2021/10/10 10:06:24;;;;;;;57.87;2.80;;;20.20;1.00;;;;;;5136895;27;20527;-72
2021/10/10 10:08:53;;;;;;;58.60;3.03;;;20.60;1.00;;;;;;5136889;27;20572;-72
2021/10/10 10:11:21;;;;;;;58.40;3.10;;;20.80;1.00;;;;;;5137791;27;20527;-72
2021/10/10 10:13:49;;;;;;;57.87;2.30;;;21.00;1.00;;;;;;5135636;27;20480;-72
2021/10/10 10:16:17;;;;;;;58.20;3.10;;;21.30;1.00;;;;;;5136210;27;20483;-72
2021/10/10 10:18:44;;;;;;;59.70;4.10;;;21.50;1.00;;;;;;5135900;27;20468;-71
2021/10/10 10:21:11;;;;;;;58.10;2.60;;;21.60;1.00;;;;;;5135215;27;20519;-71
2021/10/10 10:23:40;;;;;;;58.07;2.63;;;21.30;1.00;;;;;;5135037;27;20529;-71
2021/10/10 10:26:09;;;;;;;58.70;3.80;;;21.40;1.00;;;;;;5134411;27;20531;-71
2021/10/10 10:28:37;;;;;;;57.93;2.60;;;21.60;1.00;;;;;;5134927;27;20472;-71
2021/10/10 10:31:04;;;;;;;58.60;3.17;;;22.10;1.00;;;;;;5135027;27;20535;-71
2021/10/10 10:33:32;;;;;;;58.20;2.90;;;22.90;1.00;;;;;;5135017;27;20483;-72
2021/10/10 10:35:59;;;;;;;57.93;3.10;;;23.40;1.00;;;;;;5134261;27;20968;-72
2021/10/10 10:38:45;;;;;;;58.07;2.73;;;23.80;1.00;;;;;;5134487;27;20464;-71
2021/10/10 10:41:50;;;;;;;58.30;2.80;;;24.30;1.00;;;;;;5134233;27;20450;-71
2021/10/10 10:44:48;;;;;;;57.90;2.47;;;24.70;1.00;;;;;;5134706;27;20449;-71
2021/10/10 10:47:17;;;;;;;58.07;2.87;;;24.60;1.00;;;;;;5028830;28;20454;-71
2021/10/10 10:49:58;;;;;;;58.30;2.83;;;24.00;1.00;;;;;;5112661;27;20494;-71
2021/10/10 10:52:27;;;;;;;59.10;3.03;;;23.80;1.00;;;;;;5134836;27;20481;-73
2021/10/10 10:54:55;;;;;;;58.57;2.60;;;24.20;1.00;;;;;;5134214;27;20617;-71
2021/10/10 10:57:31;;;;;;;57.77;2.87;;;24.40;1.00;;;;;;5133340;27;20447;-71
2021/10/10 11:00:04;;;;;;;59.70;2.87;;;24.50;1.00;;;;;;5134132;27;20466;-72
2021/10/10 11:03:11;;;;;;;57.60;2.40;;;24.90;1.00;;;;;;5134101;27;21045;-71
2021/10/10 11:05:43;;;;;;;57.90;2.80;;;25.50;1.00;;;;;;5083400;27;20814;-72
2021/10/10 11:08:38;;;;;;;58.10;2.80;;;25.40;1.00;;;;;;5133989;27;20505;-71
2021/10/10 11:11:19;;;;;;;57.37;2.20;;;25.70;1.00;;;;;;5134357;27;20448;-71
2021/10/10 11:13:49;;;;;;;58.57;3.80;;;26.30;1.00;;;;;;5134103;27;20856;-72
2021/10/10 11:16:18;;;;;;;58.87;3.47;;;27.10;1.00;;;;;;5133944;27;20863;-72
2021/10/10 11:18:48;;;;;;;57.87;2.60;;;27.90;1.00;;;;;;5132495;27;20551;-71
2021/10/10 11:21:16;;;;;;;58.00;2.87;;;28.60;1.00;;;;;;5133852;27;20925;-71
2021/10/10 11:23:44;;;;;;;62.57;2.90;;;29.10;99.90;;;;;;5133384;27;20487;-71
2021/10/10 11:26:12;;;;;;;58.00;3.00;;;29.50;99.90;;;;;;5133726;27;20544;-72
2021/10/10 11:28:44;;;;;;;57.87;2.70;;;29.70;99.90;;;;;;5133362;27;20553;-71
2021/10/10 11:31:14;;;;;;;59.13;3.00;;;29.30;99.90;;;;;;5133913;27;20852;-72
2021/10/10 11:33:43;;;;;;;58.13;3.00;;;28.90;99.90;;;;;;5133970;27;20527;-72
2021/10/10 11:36:10;;;;;;;58.87;3.80;;;28.80;99.90;;;;;;5133145;27;20952;-71
2021/10/10 11:38:55;;;;;;;57.63;3.13;;;29.00;99.90;;;;;;5133894;27;20475;-72
2021/10/10 11:41:23;;;;;;;57.83;2.80;;;29.70;99.90;;;;;;5133180;27;20447;-71
2021/10/10 11:43:59;;;;;;;59.03;3.27;;;30.20;99.90;;;;;;5133321;27;20474;-71
2021/10/10 11:46:41;;;;;;;57.50;2.80;;;30.70;99.90;;;;;;5133554;27;20454;-71
2021/10/10 11:49:38;;;;;;;57.27;2.50;;;30.20;99.90;;;;;;5133185;27;20472;-71
2021/10/10 11:52:08;;;;;;;57.37;2.60;;;29.60;99.90;;;;;;5132159;27;20454;-73
2021/10/10 11:54:38;;;;;;;59.30;3.07;;;29.60;99.90;;;;;;5133194;27;20462;-72
2021/10/10 11:57:07;;;;;;;58.30;2.30;;;29.50;99.90;;;;;;5133227;27;20481;-72
2021/10/10 11:59:34;;;;;;;57.70;2.77;;;29.60;99.90;;;;;;5133476;27;20499;-72
2021/10/10 12:02:03;;;;;;;57.47;2.43;;;29.90;99.90;;;;;;5132936;27;20877;-71
2021/10/10 12:04:30;;;;;;;57.60;2.60;;;30.00;99.90;;;;;;5132759;27;20483;-72
2021/10/10 12:06:57;;;;;;;57.47;2.33;;;30.00;99.90;;;;;;5132027;27;20978;-72
2021/10/10 12:09:24;;;;;;;58.93;3.00;;;30.00;99.90;;;;;;5132743;27;20555;-72
2021/10/10 12:12:05;;;;;;;58.50;2.43;;;30.10;99.90;;;;;;5132970;27;20487;-72
2021/10/10 12:14:46;;;;;;;57.97;2.90;;;30.20;99.90;;;;;;5132941;27;20440;-73
2021/10/10 12:17:39;;;;;;;57.27;2.40;;;30.40;99.90;;;;;;5132814;27;20440;-72
2021/10/10 12:20:26;;;;;;;58.60;3.20;;;31.30;99.90;;;;;;5108414;27;20456;-71
2021/10/10 12:22:55;;;;;;;57.33;2.80;;;32.10;99.90;;;;;;5131558;27;20484;-71
2021/10/10 12:25:24;;;;;;;57.70;2.70;;;31.80;99.90;;;;;;5132245;27;20465;-72
2021/10/10 12:28:01;;;;;;;58.13;2.67;;;31.50;99.90;;;;;;5132247;27;20452;-72
2021/10/10 12:30:29;;;;;;;57.90;2.80;;;31.40;99.90;;;;;;5132397;27;20543;-71
2021/10/10 12:32:58;;;;;;;57.47;2.60;;;31.10;99.90;;;;;;5132626;27;20448;-73
2021/10/10 12:35:25;;;;;;;58.10;3.10;;;31.10;99.90;;;;;;5132041;27;20563;-72
2021/10/10 12:37:54;;;;;;;57.47;2.50;;;31.20;99.90;;;;;;5132573;27;20888;-70
2021/10/10 12:40:27;;;;;;;57.47;2.57;;;31.60;99.90;;;;;;5132341;27;20444;-72
2021/10/10 12:42:55;;;;;;;57.90;2.60;;;32.00;99.90;;;;;;5132466;27;20476;-72
2021/10/10 12:45:27;;;;;;;58.10;2.77;;;32.20;99.90;;;;;;5132192;27;20687;-72
2021/10/10 12:48:01;;;;;;;58.20;2.80;;;32.40;99.90;;;;;;5132206;27;20452;-72
2021/10/10 12:50:28;;;;;;;58.10;2.57;;;32.70;99.90;;;;;;5132086;27;20455;-72
2021/10/10 12:52:55;;;;;;;57.07;2.17;;;33.20;99.90;;;;;;5132274;27;20820;-73
2021/10/10 12:55:24;;;;;;;58.80;3.03;;;33.80;99.90;;;;;;5130567;27;20532;-72
2021/10/10 12:57:52;;;;;;;57.30;2.23;;;34.50;99.90;;;;;;5132498;28;20526;-72
2021/10/10 13:00:19;;;;;;;57.80;2.87;;;35.10;99.90;;;;;;5132519;28;20799;-73
2021/10/10 13:02:48;;;;;;;57.07;2.00;;;35.40;99.90;;;;;;5132561;28;20491;-72
2021/10/10 13:05:17;;;;;;;57.97;2.30;;;35.30;99.90;;;;;;5131463;28;20452;-73
2021/10/10 13:07:44;;;;;;;57.93;2.87;;;35.50;99.90;;;;;;5131671;28;20463;-73